Dades meteomassalio
Diari Summary for Gener 10, 2017 Units:  Metric    English   Both
« Previous Day
Next Day »
Diari Semanal Mensual Anual Personalitzat
  Maxima: Minima: Mijana:
Temperatura: -17.8 °C -14.8 °C -12.7 °C
Rosada: -17.8 °C -16.7 °C -15.3 °C
Humitat: Humidity % 65 % 72 %
Velocitat del vent: 0 km/h 0 km/h 52.3 km/h
Racha vent: 0 km/h - -
Vent:- - SW
Pressio: 0 hPa 34303.6 hPa -
Pluja: 0 mm    
Historical Graphs
 
 
Tabular Data for Gener 10, 2017
Time Temperature Dew Point Pressure Wind Wind Speed Wind Gust Humidity Rainfall Rate (Hourly) solar Conditions
-17.8 °C -17.8 °C 0 hPa Calm     Humidity % 0 mm SolarRadiationWatts/m^2 W/m2 Conditions
00:03 -14.8 °C -16.7 °C 34659.1 hPa ENE 6 km/h 6 km/h 79 % 0 mm 0.0 W/m2 CLR
00:08 -14.5 °C -16.3 °C 34645.6 hPa ENE 9 km/h 9 km/h 79 % 0 mm 0.0 W/m2 CLR
00:13 -14.3 °C -16.4 °C 34645.6 hPa ENE 7.7 km/h 7.7 km/h 76 % 0 mm 0.0 W/m2 CLR
00:18 -14.1 °C -16.3 °C 34645.6 hPa ENE 9 km/h 9 km/h 76 % 0 mm 0.0 W/m2 CLR
00:23 -14.1 °C -16.3 °C 34645.6 hPa ENE 6 km/h   75 % 0 mm 0.0 W/m2 CLR
00:28 -14.1 °C -16.5 °C 34645.6 hPa ENE 3.1 km/h   74 % 0 mm 0.0 W/m2 CLR
00:33 -14.2 °C -16.5 °C 34645.6 hPa ENE 9 km/h 9 km/h 75 % 0 mm 0.0 W/m2 CLR
00:38 -14.3 °C -16.6 °C 34645.6 hPa ENE 15 km/h 15 km/h 75 % 0 mm 0.0 W/m2 CLR
00:43 -14.3 °C -16.5 °C 34645.6 hPa ENE 9 km/h 9 km/h 76 % 0 mm 0.0 W/m2 CLR
00:48 -14.3 °C -16.5 °C 34645.6 hPa Calm     76 % 0 mm 0.0 W/m2 CLR
00:58 -14.4 °C -16.6 °C 34645.6 hPa Calm     76 % 0 mm 0.0 W/m2 CLR
01:03 -14.4 °C -16.6 °C 34645.6 hPa Calm     76 % 0 mm 0.0 W/m2 CLR
01:08 -14.3 °C -16.5 °C 34645.6 hPa Calm     76 % 0 mm 0.0 W/m2 CLR
01:13 -14.3 °C -16.5 °C 34635.4 hPa Calm     76 % 0 mm 0.0 W/m2 CLR
01:18 -14.3 °C -16.4 °C 34635.4 hPa Calm     76 % 0 mm 0.0 W/m2 CLR
01:23 -14.2 °C -16.4 °C 34635.4 hPa Calm     76 % 0 mm 0.0 W/m2 CLR
01:28 -14.2 °C -16.3 °C 34625.2 hPa ENE 9 km/h 9 km/h 76 % 0 mm 0.0 W/m2 CLR
01:33 -14.1 °C -16.4 °C 34625.2 hPa Calm     75 % 0 mm 0.0 W/m2 CLR
01:38 -14.2 °C -16.4 °C 34625.2 hPa Calm     76 % 0 mm 0.0 W/m2 CLR
01:43 -14.2 °C -16.4 °C 34611.7 hPa Calm     76 % 0 mm 0.0 W/m2 CLR
01:48 -14.2 °C -16.4 °C 34611.7 hPa Calm     76 % 0 mm 0.0 W/m2 CLR
01:53 -14.2 °C -16.3 °C 34611.7 hPa Calm     76 % 0 mm 0.0 W/m2 CLR
01:58 -14.2 °C -16.3 °C 34611.7 hPa ENE 6 km/h 6 km/h 76 % 0 mm 0.0 W/m2 CLR
02:03 -14.1 °C -16.3 °C 34601.5 hPa Calm   1 km/h 75 % 0 mm 0.0 W/m2 CLR
02:09 -14 °C -16.3 °C 34601.5 hPa ENE 6 km/h 6 km/h 75 % 0 mm 0.0 W/m2 CLR
02:14 -13.9 °C -16.2 °C 34601.5 hPa ENE 9 km/h 9 km/h 75 % 0 mm 0.0 W/m2 CLR
02:19 -13.9 °C -16.3 °C 34591.4 hPa ENE 3.1 km/h 3.1 km/h 74 % 0 mm 0.0 W/m2 CLR
02:24 -13.8 °C -16.3 °C 34591.4 hPa Calm     74 % 0 mm 0.0 W/m2 CLR
02:29 -13.8 °C -16.3 °C 34577.8 hPa Calm     74 % 0 mm 0.0 W/m2 CLR
02:34 -13.9 °C -16.3 °C 34577.8 hPa ENE 7.7 km/h 7.7 km/h 74 % 0 mm 0.0 W/m2 CLR
02:39 -13.9 °C -16.3 °C 34577.8 hPa Calm     74 % 0 mm 0.0 W/m2 CLR
02:44 -13.9 °C -16.3 °C 34567.7 hPa Calm     74 % 0 mm 0.0 W/m2 CLR
02:49 -13.9 °C -16.3 °C 34567.7 hPa Calm     74 % 0 mm 0.0 W/m2 CLR
02:54 -13.9 °C -16.3 °C 34577.8 hPa Calm     74 % 0 mm 0.0 W/m2 CLR
02:59 -13.9 °C -16.3 °C 34577.8 hPa Calm     74 % 0 mm 0.0 W/m2 CLR
03:04 -13.8 °C -16.3 °C 34577.8 hPa ENE 18.2 km/h 18.2 km/h 73 % 0 mm 0.0 W/m2 CLR
03:09 -13.7 °C -16.3 °C 34577.8 hPa ENE 11.9 km/h 11.9 km/h 72 % 0 mm 0.0 W/m2 CLR
03:14 -13.6 °C -16.3 °C 34577.8 hPa ENE 20.9 km/h 20.9 km/h 71 % 0 mm 0.0 W/m2 CLR
03:19 -13.4 °C -16.3 °C 34577.8 hPa ENE 17.9 km/h 17.9 km/h 70 % 0 mm 0.0 W/m2 CLR
03:24 -13.3 °C -16.2 °C 34567.7 hPa ENE 29.8 km/h 29.8 km/h 69 % 0 mm 0.0 W/m2 CLR
03:29 -13.2 °C -16.2 °C 34567.7 hPa ENE 29.8 km/h 29.8 km/h 69 % 0 mm 0.0 W/m2 CLR
03:34 -13.2 °C -16.2 °C 34567.7 hPa ENE 32.8 km/h 32.8 km/h 69 % 0 mm 0.0 W/m2 CLR
03:44 -13.1 °C -16.3 °C 34554.1 hPa ENE 35.7 km/h 35.7 km/h 67 % 0 mm 0.0 W/m2 CLR
03:49 -13.1 °C -16.3 °C 34554.1 hPa ENE 47.6 km/h 47.6 km/h 67 % 0 mm 0.0 W/m2 CLR
03:54 -13.2 °C -16.3 °C 34554.1 hPa ENE 29.8 km/h 29.8 km/h 67 % 0 mm 0.0 W/m2 CLR
03:59 -13.2 °C -16.4 °C 34544 hPa ENE 41.7 km/h 41.7 km/h 67 % 0 mm 0.0 W/m2 CLR
04:04 -13.2 °C -16.3 °C 34544 hPa ENE 38.8 km/h 38.8 km/h 67 % 0 mm 0.0 W/m2 CLR
04:09 -13.2 °C -16.3 °C 34544 hPa ENE 32.8 km/h 32.8 km/h 67 % 0 mm 0.0 W/m2 CLR
04:14 -13.2 °C -16.4 °C 34544 hPa ENE 44.7 km/h 44.7 km/h 67 % 0 mm 0.0 W/m2 CLR
04:19 -13.2 °C -16.3 °C 34544 hPa ENE 31.1 km/h 31.1 km/h 68 % 0 mm 0.0 W/m2 CLR
04:24 -13.2 °C -16.2 °C 34533.8 hPa ENE 41.7 km/h 41.7 km/h 69 % 0 mm 0.0 W/m2 CLR
04:29 -13.2 °C -16.1 °C 34533.8 hPa ENE 32.8 km/h 32.8 km/h 69 % 0 mm 0.0 W/m2 CLR
04:34 -13.1 °C -16.1 °C 34533.8 hPa ENE 41.7 km/h 41.7 km/h 69 % 0 mm 0.0 W/m2 CLR
04:39 -13.1 °C -16 °C 34533.8 hPa ENE 35.7 km/h 35.7 km/h 70 % 0 mm 0.0 W/m2 CLR
04:44 -13.2 °C -16 °C 34520.3 hPa ENE 32.8 km/h 32.8 km/h 70 % 0 mm 0.0 W/m2 CLR
04:49 -13.1 °C -16 °C 34520.3 hPa ENE 29.8 km/h 29.8 km/h 70 % 0 mm 0.0 W/m2 CLR
04:54 -13.1 °C -16.1 °C 34520.3 hPa ENE 35.7 km/h 35.7 km/h 69 % 0 mm 0.0 W/m2 CLR
04:59 -13.1 °C -16.1 °C 34510.1 hPa ENE 35.7 km/h 35.7 km/h 69 % 0 mm 0.0 W/m2 CLR
05:09 -13 °C -16 °C 34510.1 hPa ENE 33.6 km/h 33.6 km/h 69 % 0 mm 0.0 W/m2 CLR
05:19 -12.9 °C -15.9 °C 34496.6 hPa ENE 41.7 km/h 41.7 km/h 69 % 0 mm 0.0 W/m2 CLR
05:24 -12.9 °C -15.9 °C 34510.1 hPa ENE 29.8 km/h 29.8 km/h 69 % 0 mm 0.0 W/m2 CLR
05:29 -12.9 °C -15.8 °C 34510.1 hPa ENE 41.7 km/h 41.7 km/h 70 % 0 mm 0.0 W/m2 CLR
05:34 -12.9 °C -15.8 °C 34510.1 hPa ENE 41.7 km/h 41.7 km/h 70 % 0 mm 0.0 W/m2 CLR
05:39 -12.9 °C -15.7 °C 34496.6 hPa ENE 41.7 km/h 41.7 km/h 70 % 0 mm 0.0 W/m2 CLR
05:44 -12.7 °C -15.7 °C 34496.6 hPa ENE 44.7 km/h 44.7 km/h 69 % 0 mm 0.0 W/m2 CLR
05:49 -12.7 °C -15.8 °C 34496.6 hPa ENE 41.7 km/h 41.7 km/h 68 % 0 mm 0.0 W/m2 CLR
05:54 -12.7 °C -15.8 °C 34486.4 hPa ENE 41.7 km/h 41.7 km/h 68 % 0 mm 0.0 W/m2 CLR
05:59 -12.7 °C -15.9 °C 34486.4 hPa ENE 50.7 km/h 50.7 km/h 67 % 0 mm 0.0 W/m2 CLR
06:04 -12.7 °C -15.9 °C 34486.4 hPa ENE 50.7 km/h 50.7 km/h 67 % 0 mm 0.0 W/m2 CLR
06:09 -12.6 °C -16 °C 34476.3 hPa ENE 53.6 km/h 53.6 km/h 66 % 0 mm 0.0 W/m2 CLR
06:14 -12.6 °C -15.9 °C 34476.3 hPa ENE 38.8 km/h 38.8 km/h 66 % 0 mm 0.0 W/m2 CLR
06:19 -12.6 °C -15.9 °C 34476.3 hPa ENE 50.7 km/h 50.7 km/h 66 % 0 mm 0.0 W/m2 CLR
06:20 -12.6 °C -15.9 °C 34476.3 hPa ENE 50.7 km/h 50.7 km/h 66 % 0 mm 0.0 W/m2 CLR
06:25 -12.6 °C -15.9 °C 34476.3 hPa ENE 50.7 km/h 50.7 km/h 66 % 0 mm 0.0 W/m2 CLR
06:30 -12.6 °C -16 °C 34486.4 hPa ENE 44.7 km/h 44.7 km/h 66 % 0 mm 0.0 W/m2 CLR
06:35 -12.6 °C -16 °C 34486.4 hPa ENE 47.6 km/h 47.6 km/h 66 % 0 mm 0.0 W/m2 CLR
06:40 -12.6 °C -15.9 °C 34476.3 hPa ENE 50.7 km/h 50.7 km/h 67 % 0 mm 0.0 W/m2 CLR
06:45 -12.6 °C -15.8 °C 34476.3 hPa ENE 47.6 km/h 47.6 km/h 67 % 0 mm 0.0 W/m2 CLR
06:50 -12.6 °C -15.7 °C 34476.3 hPa ENE 47.6 km/h 47.6 km/h 68 % 0 mm 0.0 W/m2 CLR
06:55 -12.7 °C -15.7 °C 34476.3 hPa ENE 54.4 km/h 54.4 km/h 69 % 0 mm 0.0 W/m2 CLR
07:00 -12.8 °C -15.8 °C 34462.7 hPa ENE 53.6 km/h 53.6 km/h 69 % 0 mm 0.0 W/m2 CLR
07:05 -12.8 °C -15.7 °C 34462.7 hPa ENE 56.6 km/h 56.6 km/h 70 % 0 mm 0.0 W/m2 CLR
07:10 -12.8 °C -15.7 °C 34462.7 hPa ENE 64.7 km/h 64.7 km/h 70 % 0 mm 0.0 W/m2 CLR
07:20 -12.7 °C -15.7 °C 34462.7 hPa ENE 59.5 km/h 59.5 km/h 69 % 0 mm 0.0 W/m2 CLR
07:25 -12.7 °C -15.7 °C 34462.7 hPa ENE 50.7 km/h 50.7 km/h 69 % 0 mm 0.0 W/m2 CLR
07:30 -12.7 °C -15.7 °C 34462.7 hPa ENE 53.6 km/h 53.6 km/h 69 % 0 mm 0.0 W/m2 CLR
07:35 -12.7 °C -15.7 °C 34462.7 hPa ENE 65.5 km/h 65.5 km/h 69 % 0 mm 0.0 W/m2 CLR
07:40 -12.7 °C -15.7 °C 34462.7 hPa ENE 44.7 km/h 44.7 km/h 69 % 0 mm 0.0 W/m2 CLR
07:45 -12.7 °C -15.7 °C 34462.7 hPa ENE 53.6 km/h 53.6 km/h 69 % 0 mm 0.0 W/m2 CLR
07:50 -12.7 °C -15.7 °C 34462.7 hPa ENE 50.7 km/h 50.7 km/h 69 % 0 mm 0.0 W/m2 CLR
07:55 -12.7 °C -15.7 °C 34462.7 hPa ENE 44.7 km/h 44.7 km/h 69 % 0 mm 0.0 W/m2 CLR
08:00 -12.7 °C -15.7 °C 34452.6 hPa ENE 50.7 km/h 50.7 km/h 69 % 0 mm 0.0 W/m2 CLR
08:05 -12.8 °C -15.7 °C 34452.6 hPa ENE 38.8 km/h 40.9 km/h 70 % 0 mm 0.0 W/m2 CLR
08:10 -12.8 °C -15.7 °C 34452.6 hPa ENE 38.8 km/h 38.8 km/h 70 % 0 mm 0.0 W/m2 CLR
08:15 -12.9 °C -15.7 °C 34452.6 hPa ENE 50.7 km/h 50.7 km/h 70 % 0 mm 0.0 W/m2 CLR
08:20 -12.9 °C -15.7 °C 34452.6 hPa ENE 38.8 km/h 38.8 km/h 70 % 0 mm 0.0 W/m2 CLR
08:25 -12.8 °C -15.7 °C 34452.6 hPa ENE 44.7 km/h 44.7 km/h 70 % 0 mm 0.0 W/m2 OVC
08:30 -12.9 °C -15.8 °C 34452.6 hPa NE 31.1 km/h 31.1 km/h 70 % 0 mm 0.0 W/m2 OVC
08:35 -12.8 °C -15.8 °C 34452.6 hPa ENE 44.7 km/h 44.7 km/h 69 % 0 mm 5.0 W/m2 BKN
08:40 -12.8 °C -15.8 °C 34452.6 hPa ENE 50.7 km/h 50.7 km/h 69 % 0 mm 7.0 W/m2 BKN
08:45 -12.8 °C -15.8 °C 34452.6 hPa ENE 47.6 km/h 47.6 km/h 69 % 0 mm 14.0 W/m2 BKN
08:50 -12.8 °C -15.8 °C 34452.6 hPa ENE 41.7 km/h 41.7 km/h 69 % 0 mm 21.0 W/m2 BKN
08:55 -12.9 °C -15.8 °C 34452.6 hPa ENE 47.6 km/h 47.6 km/h 70 % 0 mm 26.0 W/m2 BKN
09:00 -12.9 °C -15.7 °C 34452.6 hPa ENE 41.7 km/h 41.7 km/h 70 % 0 mm 30.0 W/m2 BKN
09:05 -12.9 °C -15.7 °C 34452.6 hPa ENE 47.6 km/h 47.6 km/h 71 % 0 mm 32.0 W/m2 BKN
09:10 -12.9 °C -15.7 °C 34452.6 hPa ENE 56.6 km/h 56.6 km/h 71 % 0 mm 47.0 W/m2 BKN
09:15 -12.8 °C -15.5 °C 34442.4 hPa ENE 50.7 km/h 50.7 km/h 72 % 0 mm 74.0 W/m2 BKN
09:20 -12.8 °C -15.4 °C 34442.4 hPa ENE 59.5 km/h 59.5 km/h 72 % 0 mm 90.0 W/m2 BKN
09:25 -12.7 °C -15.4 °C 34442.4 hPa ENE 44.7 km/h 44.7 km/h 72 % 0 mm 139.0 W/m2 BKN
09:30 -12.6 °C -15.3 °C 34442.4 hPa ENE 59.5 km/h 59.5 km/h 72 % 0 mm 171.0 W/m2 SCT
09:35 -12.6 °C -15.2 °C 34442.4 hPa ENE 35.7 km/h 35.7 km/h 72 % 0 mm 160.0 W/m2 SCT
09:40 -12.6 °C -15.2 °C 34442.4 hPa ENE 50.7 km/h 50.7 km/h 72 % 0 mm 193.0 W/m2 SCT
09:45 -12.5 °C -15.1 °C 34442.4 hPa ENE 41.4 km/h 41.4 km/h 73 % 0 mm 169.0 W/m2 SCT
09:50 -12.6 °C -15.1 °C 34452.6 hPa ENE 59.5 km/h 59.5 km/h 73 % 0 mm 151.0 W/m2 SCT
09:55 -12.6 °C -15.1 °C 34442.4 hPa ENE 65.5 km/h 65.5 km/h 73 % 0 mm 84.0 W/m2 BKN
10:00 -12.6 °C -15.2 °C 34442.4 hPa NE 44.7 km/h 44.7 km/h 73 % 0 mm 53.0 W/m2 BKN
10:05 -12.7 °C -15.2 °C 34442.4 hPa NNW 62.6 km/h 62.6 km/h 73 % 0 mm 58.0 W/m2 BKN
10:10 -12.7 °C -15.2 °C 34442.4 hPa NW 41.7 km/h 41.7 km/h 74 % 0 mm 70.0 W/m2 BKN
10:15 -12.7 °C -15.2 °C 34428.8 hPa NW 54.4 km/h 54.4 km/h 74 % 0 mm 72.0 W/m2 BKN
10:20 -12.7 °C -15.1 °C 34428.8 hPa NW 59.5 km/h 59.5 km/h 74 % 0 mm 81.0 W/m2 BKN
10:25 -12.7 °C -15.1 °C 34428.8 hPa NW 71.5 km/h 71.5 km/h 74 % 0 mm 81.0 W/m2 BKN
10:30 -12.7 °C -14.9 °C 34442.4 hPa NW 56.6 km/h 56.6 km/h 76 % 0 mm 98.0 W/m2 BKN
10:35 -12.8 °C -14.9 °C 34442.4 hPa NW 68.6 km/h 68.6 km/h 77 % 0 mm 104.0 W/m2 BKN
10:40 -12.8 °C -14.9 °C 34442.4 hPa NW 54.4 km/h 54.4 km/h 77 % 0 mm 90.0 W/m2 BKN
10:45 -12.8 °C -14.8 °C 34442.4 hPa NW 41.7 km/h 41.7 km/h 78 % 0 mm 100.0 W/m2 BKN
10:50 -12.8 °C -14.9 °C 34442.4 hPa NW 50.7 km/h 50.7 km/h 77 % 0 mm 84.0 W/m2 BKN
10:55 -12.8 °C -14.9 °C 34452.6 hPa NW 38.8 km/h 38.8 km/h 77 % 0 mm 105.0 W/m2 BKN
11:00 -12.7 °C -14.9 °C 34452.6 hPa NW 23.8 km/h 23.8 km/h 77 % 0 mm 72.0 W/m2 BKN
11:05 -12.7 °C -14.9 °C 34452.6 hPa NW 41.7 km/h 41.7 km/h 76 % 0 mm 77.0 W/m2 BKN
11:10 -12.7 °C -14.9 °C 34442.4 hPa NW 50.7 km/h 50.7 km/h 76 % 0 mm 113.0 W/m2 BKN
11:15 -12.6 °C -14.8 °C 34442.4 hPa NW 44.7 km/h 44.7 km/h 76 % 0 mm 113.0 W/m2 BKN
11:20 -12.6 °C -14.9 °C 34428.8 hPa NW 44.7 km/h 44.7 km/h 75 % 0 mm 132.0 W/m2 BKN
11:25 -12.6 °C -14.9 °C 34418.7 hPa NW 56.6 km/h 56.6 km/h 75 % 0 mm 163.0 W/m2 BKN
11:30 -12.4 °C -14.9 °C 34418.7 hPa NW 62.6 km/h 62.6 km/h 74 % 0 mm 195.0 W/m2 BKN
11:35 -12.3 °C -14.8 °C 34405.1 hPa NW 47.6 km/h 47.6 km/h 74 % 0 mm 220.0 W/m2 BKN
11:40 -12.3 °C -14.9 °C 34405.1 hPa NW 53.6 km/h 53.6 km/h 73 % 0 mm 218.0 W/m2 BKN
11:45 -12.3 °C -14.8 °C 34405.1 hPa NW 44.7 km/h 44.7 km/h 73 % 0 mm 227.0 W/m2 BKN
11:50 -12.2 °C -14.8 °C 34395 hPa NW 41.7 km/h 41.7 km/h 73 % 0 mm 169.0 W/m2 BKN
11:55 -12.2 °C -14.7 °C 34395 hPa NW 59.5 km/h 59.5 km/h 73 % 0 mm 207.0 W/m2 BKN
12:00 -12.1 °C -14.8 °C 34384.8 hPa NW 68.6 km/h 68.6 km/h 72 % 0 mm 202.0 W/m2 BKN
12:05 -12.1 °C -14.8 °C 34384.8 hPa NW 56.6 km/h 56.6 km/h 72 % 0 mm 200.0 W/m2 BKN
12:10 -12.1 °C -14.7 °C 34371.3 hPa NW 77.4 km/h 77.4 km/h 72 % 0 mm 176.0 W/m2 BKN
12:15 -12 °C -14.8 °C 34371.3 hPa NW 59.5 km/h 59.5 km/h 71 % 0 mm 169.0 W/m2 BKN
12:20 -12 °C -14.8 °C 34361.1 hPa NW 64.7 km/h 64.7 km/h 71 % 0 mm 195.0 W/m2 BKN
12:25 -11.9 °C -14.7 °C 34361.1 hPa NW 71.5 km/h 71.5 km/h 71 % 0 mm 202.0 W/m2 BKN
12:30 -11.8 °C -14.7 °C 34371.3 hPa NW 74.5 km/h 74.5 km/h 70 % 0 mm 183.0 W/m2 BKN
12:35 -11.8 °C -14.7 °C 34361.1 hPa NW 68.6 km/h 68.6 km/h 70 % 0 mm 155.0 W/m2 BKN
12:40 -11.7 °C -14.7 °C 34347.6 hPa NW 86.4 km/h 86.4 km/h 70 % 0 mm 148.0 W/m2 BKN
12:45 -11.7 °C -14.7 °C 34347.6 hPa NW 83.4 km/h 83.4 km/h 70 % 0 mm 207.0 W/m2 BKN
12:50 -11.6 °C -14.6 °C 34337.4 hPa NW 74.5 km/h 74.5 km/h 70 % 0 mm 234.0 W/m2 BKN
12:56 -11.6 °C -14.5 °C 34337.4 hPa NW 82.9 km/h 82.9 km/h 70 % 0 mm 223.0 W/m2 BKN
13:01 -11.6 °C -14.5 °C 34347.6 hPa NW 90.6 km/h 90.6 km/h 70 % 0 mm 241.0 W/m2 BKN
13:06 -11.5 °C -14.4 °C 34347.6 hPa NW 68.6 km/h 68.6 km/h 70 % 0 mm 373.0 W/m2 SCT
13:11 -11.4 °C -14.5 °C 34337.4 hPa NW 83.4 km/h 83.4 km/h 69 % 0 mm 218.0 W/m2 SCT
13:16 -11.4 °C -14.5 °C 34347.6 hPa NNW 101.2 km/h 101.2 km/h 69 % 0 mm 376.0 W/m2 SCT
13:21 -11.5 °C -14.6 °C 34337.4 hPa NNW 98.3 km/h 98.3 km/h 69 % 0 mm 190.0 W/m2 SCT
13:26 -11.5 °C -14.4 °C 34337.4 hPa NW 83.4 km/h 83.4 km/h 70 % 0 mm 200.0 W/m2 BKN
13:31 -11.6 °C -14.5 °C 34337.4 hPa NW 83.4 km/h 83.4 km/h 70 % 0 mm 186.0 W/m2 BKN
13:36 -11.4 °C -14.3 °C 34327.3 hPa NNW 77.4 km/h 77.4 km/h 70 % 0 mm 371.0 W/m2 SCT
13:46 -11.1 °C -14.2 °C 34327.3 hPa NW 83.4 km/h 83.4 km/h 69 % 0 mm 441.0 W/m2 CLR
13:51 -11.1 °C -14.2 °C 34327.3 hPa NW 89.3 km/h 89.3 km/h 69 % 0 mm 534.0 W/m2 CLR
13:56 -11.2 °C -14.3 °C 34327.3 hPa NW 83.4 km/h 83.4 km/h 68 % 0 mm 221.0 W/m2 CLR
14:01 -11.2 °C -14.3 °C 34337.4 hPa NNW 90.6 km/h 90.6 km/h 69 % 0 mm 274.0 W/m2 SCT
14:06 -11.3 °C -14.4 °C 34337.4 hPa NNW 98.3 km/h 98.3 km/h 69 % 0 mm 279.0 W/m2 SCT
14:11 -11.3 °C -14.4 °C 34327.3 hPa NNW 86.4 km/h 86.4 km/h 69 % 0 mm 257.0 W/m2 SCT
14:16 -11.3 °C -14.4 °C 34327.3 hPa NNW 83.4 km/h 83.4 km/h 69 % 0 mm 239.0 W/m2 SCT
14:21 -11.3 °C -14.5 °C 34327.3 hPa NNW 95.3 km/h 95.3 km/h 68 % 0 mm 308.0 W/m2 SCT
14:26 -11.2 °C -14.4 °C 34313.7 hPa NNW 89.3 km/h 89.3 km/h 68 % 0 mm 322.0 W/m2 SCT
14:31 -11.2 °C -14.3 °C 34313.7 hPa NNW 95.3 km/h 95.3 km/h 68 % 0 mm 362.0 W/m2 FEW
14:36 -11.1 °C -14.3 °C 34313.7 hPa NNW 89.3 km/h 89.3 km/h 68 % 0 mm 330.0 W/m2 CLR
14:41 -11.1 °C -14.3 °C 34313.7 hPa NNW 80.5 km/h 80.5 km/h 68 % 0 mm 323.0 W/m2 CLR
14:46 -11.2 °C -14.3 °C 34313.7 hPa NNW 89.3 km/h 89.3 km/h 68 % 0 mm 325.0 W/m2 FEW
14:51 -11.1 °C -14.3 °C 34313.7 hPa NW 77.4 km/h 77.4 km/h 68 % 0 mm 309.0 W/m2 FEW
14:56 -11.1 °C -14.3 °C 34303.6 hPa NW 80.5 km/h 80.5 km/h 68 % 0 mm 357.0 W/m2 CLR
15:01 -11.1 °C -14.3 °C 34303.6 hPa NW 95.3 km/h 95.3 km/h 67 % 0 mm 322.0 W/m2 CLR
15:06 -11 °C -14.3 °C 34303.6 hPa NW 77.4 km/h 77.4 km/h 67 % 0 mm 272.0 W/m2 CLR
15:11 -11.1 °C -14.3 °C 34303.6 hPa NNW 92.4 km/h 92.4 km/h 67 % 0 mm 185.0 W/m2 CLR
15:16 -11.1 °C -14.3 °C 34303.6 hPa NNW 95.8 km/h 95.8 km/h 68 % 0 mm 251.0 W/m2 FEW
15:21 -11.1 °C -14.4 °C 34313.7 hPa NW 74.5 km/h 74.5 km/h 67 % 0 mm 225.0 W/m2 FEW
15:26 -11.1 °C -14.5 °C 34303.6 hPa NW 68.6 km/h 68.6 km/h 66 % 0 mm 172.0 W/m2 FEW
15:31 -11 °C -14.4 °C 34303.6 hPa NW 80.5 km/h 80.5 km/h 66 % 0 mm 207.0 W/m2 FEW
15:36 -11 °C -14.6 °C 34303.6 hPa NW 77.4 km/h 77.4 km/h 65 % 0 mm 223.0 W/m2 FEW
15:41 -11 °C -14.6 °C 34303.6 hPa NW 65.5 km/h 65.5 km/h 65 % 0 mm 197.0 W/m2 FEW
15:46 -11 °C -14.6 °C 34303.6 hPa NW 92.4 km/h 92.4 km/h 65 % 0 mm 134.0 W/m2 FEW
15:51 -11.1 °C -14.6 °C 34303.6 hPa NW 77.4 km/h 77.4 km/h 65 % 0 mm 186.0 W/m2 FEW
15:56 -11.1 °C -14.6 °C 34313.7 hPa NW 53.6 km/h 53.6 km/h 65 % 0 mm 190.0 W/m2 FEW
16:01 -11.1 °C -14.7 °C 34313.7 hPa NW 53.6 km/h 53.6 km/h 65 % 0 mm 153.0 W/m2 CLR
16:06 -11.1 °C -14.7 °C 34313.7 hPa NW 62.6 km/h 62.6 km/h 65 % 0 mm 176.0 W/m2 CLR
16:11 -11.1 °C -14.6 °C 34313.7 hPa NW 50.7 km/h 50.7 km/h 65 % 0 mm 167.0 W/m2 CLR
16:16 -11.1 °C -14.7 °C 34313.7 hPa NW 77.4 km/h 77.4 km/h 65 % 0 mm 135.0 W/m2 CLR
16:21 -11.2 °C -14.7 °C 34303.6 hPa NW 38.8 km/h 38.8 km/h 65 % 0 mm 104.0 W/m2 CLR
16:26 -11.2 °C -14.8 °C 34313.7 hPa NW 72.6 km/h 72.6 km/h 65 % 0 mm 102.0 W/m2 CLR
16:31 -11.2 °C -14.8 °C 34313.7 hPa NW 71.5 km/h 71.5 km/h 65 % 0 mm 107.0 W/m2 CLR
16:36 -11.3 °C -14.8 °C 34303.6 hPa NW 53.6 km/h 53.6 km/h 65 % 0 mm 83.0 W/m2 CLR
16:41 -11.3 °C -14.9 °C 34313.7 hPa NW 64.7 km/h 64.7 km/h 65 % 0 mm 86.0 W/m2 CLR
16:46 -11.3 °C -14.9 °C 34313.7 hPa NW 57 km/h 57 km/h 65 % 0 mm 77.0 W/m2 CLR
16:51 -11.4 °C -14.8 °C 34313.7 hPa NW 71.5 km/h 71.5 km/h 66 % 0 mm 70.0 W/m2 CLR
16:56 -11.4 °C -14.8 °C 34313.7 hPa NW 53.6 km/h 53.6 km/h 66 % 0 mm 60.0 W/m2 CLR
17:01 -11.5 °C -14.9 °C 34313.7 hPa NW 69.8 km/h 69.8 km/h 66 % 0 mm 42.0 W/m2 CLR
17:06 -11.6 °C -14.9 °C 34313.7 hPa NW 65.5 km/h 65.5 km/h 66 % 0 mm 28.0 W/m2 OVC
17:11 -11.6 °C -15.1 °C 34313.7 hPa NW 89.3 km/h 89.3 km/h 66 % 0 mm 21.0 W/m2 OVC
17:16 -11.7 °C -14.9 °C 34327.3 hPa NW 68.6 km/h 68.6 km/h 67 % 0 mm 19.0 W/m2 OVC
17:21 -11.8 °C -15.1 °C 34327.3 hPa NW 62.6 km/h 62.6 km/h 67 % 0 mm 21.0 W/m2 OVC
17:26 -11.8 °C -15.1 °C 34327.3 hPa NW 80.3 km/h 80.3 km/h 67 % 0 mm 18.0 W/m2 OVC
17:31 -11.8 °C -14.9 °C 34327.3 hPa NW 68.6 km/h 68.6 km/h 68 % 0 mm 12.0 W/m2 OVC
17:36 -11.9 °C -15.1 °C 34327.3 hPa NW 51.8 km/h 51.8 km/h 68 % 0 mm 9.0 W/m2 OVC
17:41 -11.9 °C -15.1 °C 34327.3 hPa NW 68.6 km/h 68.6 km/h 68 % 0 mm 7.0 W/m2 OVC
17:46 -11.9 °C -15.1 °C 34327.3 hPa NW 95.3 km/h 95.3 km/h 68 % 0 mm 0.0 W/m2
17:51 -12 °C -15.1 °C 34337.4 hPa NW 74.5 km/h 74.5 km/h 68 % 0 mm 0.0 W/m2 OVC
17:56 -12 °C -15.1 °C 34337.4 hPa NW 86.4 km/h 86.4 km/h 68 % 0 mm 0.0 W/m2
18:01 -12.1 °C -15.1 °C 34347.6 hPa NW 68.6 km/h 68.6 km/h 69 % 0 mm 0.0 W/m2 CLR
18:06 -12.1 °C -15.1 °C 34347.6 hPa NW 59.5 km/h 59.5 km/h 69 % 0 mm 0.0 W/m2 CLR
18:12 -12.2 °C -15.1 °C 34361.1 hPa NW 68.6 km/h 68.6 km/h 70 % 0 mm 0.0 W/m2 CLR
18:17 -12.2 °C -15.1 °C 34361.1 hPa NW 89.3 km/h 89.3 km/h 70 % 0 mm 0.0 W/m2 CLR
18:22 -12.2 °C -15 °C 34361.1 hPa NW 59.5 km/h 59.5 km/h 71 % 0 mm 0.0 W/m2 CLR
18:27 -12.3 °C -15.1 °C 34371.3 hPa NNW 62.1 km/h 62.1 km/h 71 % 0 mm 0.0 W/m2 CLR
18:32 -12.3 °C -15.1 °C 34361.1 hPa NW 89.3 km/h 89.3 km/h 71 % 0 mm 0.0 W/m2 CLR
18:37 -12.3 °C -15.1 °C 34361.1 hPa NW 74.5 km/h 74.5 km/h 71 % 0 mm 0.0 W/m2 CLR
18:42 -12.3 °C -15.1 °C 34347.6 hPa NW 82.9 km/h 82.9 km/h 71 % 0 mm 0.0 W/m2 CLR
18:47 -12.3 °C -15.1 °C 34347.6 hPa NW 74.5 km/h 74.5 km/h 72 % 0 mm 0.0 W/m2 CLR
18:52 -12.3 °C -15.1 °C 34347.6 hPa NW 80.3 km/h 80.3 km/h 72 % 0 mm 0.0 W/m2 CLR
18:57 -12.3 °C -15.1 °C 34347.6 hPa NW 86.4 km/h 86.4 km/h 71 % 0 mm 0.0 W/m2
19:02 -12.4 °C -15.2 °C 34361.1 hPa NW 85.5 km/h 85.5 km/h 71 % 0 mm 0.0 W/m2 CLR
19:07 -12.4 °C -15.2 °C 34347.6 hPa NW 71.5 km/h 71.5 km/h 71 % 0 mm 0.0 W/m2 CLR
19:12 -12.4 °C -15.1 °C 34361.1 hPa NW 65.5 km/h 65.5 km/h 72 % 0 mm 0.0 W/m2 CLR
19:17 -12.4 °C -15.1 °C 34361.1 hPa NW 62.6 km/h 62.6 km/h 73 % 0 mm 0.0 W/m2 CLR
19:22 -12.5 °C -15.1 °C 34361.1 hPa NW 89.3 km/h 89.3 km/h 73 % 0 mm 0.0 W/m2 CLR
19:27 -12.5 °C -15.1 °C 34371.3 hPa NW 62.6 km/h 62.6 km/h 73 % 0 mm 0.0 W/m2 CLR
19:32 -12.6 °C -15.1 °C 34371.3 hPa NW 59.5 km/h 59.5 km/h 73 % 0 mm 0.0 W/m2 CLR
19:37 -12.6 °C -15.2 °C 34371.3 hPa NW 68.6 km/h 68.6 km/h 73 % 0 mm 0.0 W/m2 CLR
19:42 -12.6 °C -15.2 °C 34371.3 hPa NW 86.4 km/h 86.4 km/h 73 % 0 mm 0.0 W/m2 CLR
19:47 -12.7 °C -15.1 °C 34371.3 hPa NW 59.5 km/h 59.5 km/h 74 % 0 mm 0.0 W/m2 CLR
19:52 -12.7 °C -15.1 °C 34371.3 hPa NW 62.6 km/h 62.6 km/h 74 % 0 mm 0.0 W/m2 CLR
19:57 -12.7 °C -15.2 °C 34371.3 hPa NW 74.5 km/h 74.5 km/h 74 % 0 mm 0.0 W/m2 CLR
20:02 -12.7 °C -15.2 °C 34384.8 hPa NW 67.3 km/h 67.3 km/h 74 % 0 mm 0.0 W/m2 CLR
20:07 -12.7 °C -15.1 °C 34384.8 hPa NW 74.5 km/h 74.5 km/h 75 % 0 mm 0.0 W/m2 CLR
20:12 -12.8 °C -15.2 °C 34384.8 hPa NW 68.6 km/h 68.6 km/h 75 % 0 mm 0.0 W/m2 CLR
20:17 -12.9 °C -15.2 °C 34384.8 hPa NW 53.6 km/h 53.6 km/h 75 % 0 mm 0.0 W/m2 CLR
20:22 -12.9 °C -15.2 °C 34384.8 hPa NW 56.6 km/h 56.6 km/h 76 % 0 mm 0.0 W/m2 CLR
20:27 -12.9 °C -15.2 °C 34371.3 hPa NW 53.6 km/h 53.6 km/h 76 % 0 mm 0.0 W/m2 CLR
20:32 -12.9 °C -15.2 °C 34371.3 hPa NW 49.2 km/h 49.2 km/h 76 % 0 mm 0.0 W/m2 CLR
20:37 -13 °C -15.2 °C 34371.3 hPa NW 56.6 km/h 56.6 km/h 76 % 0 mm 0.0 W/m2 CLR
20:42 -13.1 °C -15.2 °C 34371.3 hPa NW 59.5 km/h 59.5 km/h 77 % 0 mm 0.0 W/m2 CLR
20:47 -13.1 °C -15.2 °C 34371.3 hPa NW 68.6 km/h 68.6 km/h 77 % 0 mm 0.0 W/m2 CLR
20:52 -13.1 °C -15.1 °C 34371.3 hPa NW 53.6 km/h 53.6 km/h 78 % 0 mm 0.0 W/m2 CLR
20:57 -13.1 °C -15.1 °C 34371.3 hPa NW 44.7 km/h 44.7 km/h 78 % 0 mm 0.0 W/m2 CLR
21:02 -13.2 °C -15.2 °C 34371.3 hPa NW 50.7 km/h 51.8 km/h 78 % 0 mm 0.0 W/m2 CLR
21:07 -13.2 °C -15.1 °C 34384.8 hPa NW 54.4 km/h 54.4 km/h 79 % 0 mm 0.0 W/m2 CLR
21:12 -13.2 °C -15.1 °C 34384.8 hPa NW 65.5 km/h 65.5 km/h 79 % 0 mm 0.0 W/m2 CLR
21:17 -13.2 °C -15.1 °C 34395 hPa NW 50.7 km/h 50.7 km/h 79 % 0 mm 0.0 W/m2 CLR
21:22 -13.2 °C -15.1 °C 34395 hPa NW 71.5 km/h 71.5 km/h 79 % 0 mm 0.0 W/m2 CLR
21:27 -13.2 °C -15.1 °C 34395 hPa NW 68.6 km/h 68.6 km/h 79 % 0 mm 0.0 W/m2 CLR
21:32 -13.2 °C -15.1 °C 34395 hPa NW 62.6 km/h 62.6 km/h 79 % 0 mm 0.0 W/m2 CLR
21:37 -13.2 °C -15.1 °C 34384.8 hPa NW 65.5 km/h 65.5 km/h 79 % 0 mm 0.0 W/m2 CLR
21:42 -13.2 °C -15.1 °C 34384.8 hPa NW 68.6 km/h 68.6 km/h 79 % 0 mm 0.0 W/m2 CLR
21:47 -13.2 °C -15.1 °C 34384.8 hPa NW 47.6 km/h 47.6 km/h 79 % 0 mm 0.0 W/m2 CLR
21:52 -13.2 °C -15.1 °C 34371.3 hPa NW 59.5 km/h 59.5 km/h 80 % 0 mm 0.0 W/m2 CLR
21:57 -13.3 °C -15.1 °C 34384.8 hPa NW 68.6 km/h 68.6 km/h 80 % 0 mm 0.0 W/m2 CLR
22:02 -13.3 °C -15 °C 34384.8 hPa NW 53.6 km/h 53.6 km/h 81 % 0 mm 0.0 W/m2 CLR
22:07 -13.3 °C -15 °C 34384.8 hPa NW 65.5 km/h 65.5 km/h 81 % 0 mm 0.0 W/m2 CLR
22:12 -13.3 °C -15.1 °C 34384.8 hPa NW 68.6 km/h 68.6 km/h 81 % 0 mm 0.0 W/m2 CLR
22:17 -13.3 °C -15.1 °C 34384.8 hPa NW 62.6 km/h 62.6 km/h 81 % 0 mm 0.0 W/m2 CLR
22:22 -13.3 °C -15.1 °C 34384.8 hPa NW 44.7 km/h 44.7 km/h 80 % 0 mm 0.0 W/m2 CLR
22:27 -13.3 °C -15.1 °C 34384.8 hPa NW 65.5 km/h 65.5 km/h 81 % 0 mm 0.0 W/m2 CLR
22:32 -13.3 °C -15.1 °C 34384.8 hPa NW 53.6 km/h 53.6 km/h 80 % 0 mm 0.0 W/m2 CLR
22:37 -13.3 °C -15.1 °C 34395 hPa NW 65.5 km/h 65.5 km/h 81 % 0 mm 0.0 W/m2 CLR
22:42 -13.4 °C -15.1 °C 34395 hPa NW 59.5 km/h 59.5 km/h 81 % 0 mm 0.0 W/m2 CLR
22:47 -13.4 °C -15.1 °C 34384.8 hPa NW 68.6 km/h 68.6 km/h 81 % 0 mm 0.0 W/m2 CLR
22:52 -13.3 °C -15.1 °C 34384.8 hPa NW 57 km/h 57 km/h 80 % 0 mm 0.0 W/m2 CLR
22:57 -13.4 °C -15.1 °C 34395 hPa NW 41.4 km/h 41.4 km/h 81 % 0 mm 0.0 W/m2 CLR
23:02 -13.4 °C -15.1 °C 34395 hPa NW 56.6 km/h 56.6 km/h 81 % 0 mm 0.0 W/m2 CLR
23:07 -13.4 °C -15.1 °C 34395 hPa NW 59.5 km/h 59.5 km/h 81 % 0 mm 0.0 W/m2 CLR
23:12 -13.4 °C -15.1 °C 34395 hPa NW 50.7 km/h 50.7 km/h 81 % 0 mm 0.0 W/m2 CLR
23:17 -13.4 °C -15.1 °C 34395 hPa NW 50.7 km/h 50.7 km/h 81 % 0 mm 0.0 W/m2 CLR
23:22 -13.4 °C -15.1 °C 34395 hPa NW 56.6 km/h 56.6 km/h 81 % 0 mm 0.0 W/m2 CLR
23:27 -13.4 °C -15.2 °C 34395 hPa NW 56.6 km/h 56.6 km/h 81 % 0 mm 0.0 W/m2 CLR
23:32 -13.4 °C -15.1 °C 34395 hPa NW 62.6 km/h 62.6 km/h 81 % 0 mm 0.0 W/m2 CLR
23:37 -13.4 °C -15.1 °C 34395 hPa NW 59.5 km/h 59.5 km/h 81 % 0 mm 0.0 W/m2 CLR
23:42 -13.4 °C -15.1 °C 34395 hPa NW 50.7 km/h 50.7 km/h 81 % 0 mm 0.0 W/m2 CLR
23:47 -13.5 °C -15.2 °C 34405.1 hPa NW 50.7 km/h 50.7 km/h 81 % 0 mm 0.0 W/m2 CLR
23:52 -13.4 °C -15.2 °C 34405.1 hPa NW 56.6 km/h 56.6 km/h 81 % 0 mm 0.0 W/m2 CLR
23:57 -13.4 °C -15.2 °C 34405.1 hPa NW 50.7 km/h 50.7 km/h 81 % 0 mm 0.0 W/m2 CLR
Lo Temps de Massalio
Compliments of Weather Underground - 1.25 mb